Aviation Digital Data Service (ADDS)

Output produced by METARs form (2209 UTC 21 September 2014)
found at http://aviationweather.gov/adds/metars/
 
METAR text: KBFM 212153Z 17007KT 10SM FEW037 29/22 A2998 RMK AO2 SLP151 T02940217
Conditions at: KBFM (MOBILE/BROOKLEY , AL, US) observed 2153 UTC 21 September 2014
Temperature: 29.4°C (85°F)
Dewpoint: 21.7°C (71°F) [RH = 63%]
Pressure (altimeter): 29.98 inches Hg (1015.3 mb)
[Sea-level pressure: 1015.1 mb]
Winds: from the S (170 degrees) at 8 MPH (7 knots; 3.6 m/s)
Visibility: 10 or more miles (16+ km)
Ceiling: at least 12,000 feet AGL
Clouds: few clouds at 3700 feet AGL
Weather: no significant weather observed at this time